Time;durP1;ratioP1;P1;durP2;ratioP2;P2;SDS_P1;SDS_P2;PMS_P1;PMS_P2;Temp;Humidity;BMP_temperature;BMP_pressure;BME280_temperature;BME280_humidity;BME280_pressure;Samples;Min_cycle;Max_cycle;Signal;HPM_P1;HPM_P2
2024/02/23 00:02:11;;;;;;;;;1.50;1.00;;;;;7.11;73.56;99001.31;5063445;28;63814;-74
2024/02/23 00:04:37;;;;;;;;;2.50;1.50;;;;;7.14;73.83;99016.81;5067831;28;52336;-74
2024/02/23 00:07:02;;;;;;;;;2.00;1.00;;;;;7.13;73.84;99028.94;5072934;27;56921;-72
2024/02/23 00:09:28;;;;;;;;;1.00;1.00;;;;;7.13;74.09;99034.16;5074226;28;46471;-73
2024/02/23 00:11:54;;;;;;;;;2.25;1.00;;;;;7.12;73.96;99023.81;5064949;28;45770;-72
2024/02/23 00:14:20;;;;;;;;;0.25;0.25;;;;;7.11;73.86;99033.38;5072939;28;45502;-73
2024/02/23 00:16:45;;;;;;;;;0.25;0.00;;;;;7.09;73.95;99026.56;5062998;28;45357;-72
2024/02/23 00:19:11;;;;;;;;;3.75;1.00;;;;;7.06;73.99;99030.09;5074229;28;46094;-72
2024/02/23 00:21:37;;;;;;;;;1.00;1.00;;;;;7.06;73.99;99022.31;5083363;27;45235;-73
2024/02/23 00:24:03;;;;;;;;;4.25;1.00;;;;;7.06;74.11;99032.72;5072529;28;45599;-72
2024/02/23 00:26:29;;;;;;;;;2.75;0.25;;;;;7.04;74.02;99029.31;5065552;28;45428;-73
2024/02/23 00:28:55;;;;;;;;;1.00;0.00;;;;;7.02;74.27;99031.97;5061711;27;45375;-72
2024/02/23 00:31:20;;;;;;;;;4.00;0.00;;;;;7.03;74.08;99036.28;5072043;28;45859;-72
2024/02/23 00:33:46;;;;;;;;;0.00;0.00;;;;;7.03;74.26;99027.66;5057296;28;45526;-73
2024/02/23 00:36:11;;;;;;;;;1.00;1.00;;;;;7.06;74.56;99040.50;5060085;28;45845;-72
2024/02/23 00:38:36;;;;;;;;;2.75;0.00;;;;;7.06;74.15;99034.47;5065647;27;68509;-72
2024/02/23 00:41:02;;;;;;;;;0.00;0.00;;;;;7.08;74.12;99032.66;5072852;28;45498;-73
2024/02/23 00:43:29;;;;;;;;;2.00;1.00;;;;;7.10;74.45;99038.63;5071925;28;45352;-72
2024/02/23 00:45:54;;;;;;;;;0.00;0.00;;;;;7.12;74.45;99032.47;5074614;28;45591;-72
2024/02/23 00:48:20;;;;;;;;;0.00;0.00;;;;;7.18;74.56;99034.81;5061098;28;45347;-72
2024/02/23 00:50:45;;;;;;;;;0.00;0.00;;;;;7.21;74.74;99033.88;5061218;28;47665;-73
2024/02/23 00:53:11;;;;;;;;;2.75;0.00;;;;;7.27;74.69;99036.19;5068191;28;45785;-73
2024/02/23 00:55:36;;;;;;;;;1.50;0.25;;;;;7.29;74.50;99036.13;5069894;28;46310;-71
2024/02/23 00:58:02;;;;;;;;;1.00;1.00;;;;;7.31;74.36;99029.13;5071123;28;75727;-71
2024/02/23 01:00:27;;;;;;;;;1.50;0.75;;;;;7.33;74.40;99038.56;5073230;28;45351;-73
2024/02/23 01:02:52;;;;;;;;;2.00;1.00;;;;;7.38;74.44;99039.22;5060780;28;64510;-73
2024/02/23 01:05:18;;;;;;;;;0.00;0.00;;;;;7.43;74.33;99028.59;5066719;28;45619;-74
2024/02/23 01:07:44;;;;;;;;;2.50;0.00;;;;;7.46;74.24;99030.25;5074105;28;45972;-73
2024/02/23 01:10:09;;;;;;;;;2.00;0.00;;;;;7.48;74.50;99023.22;5072697;27;45561;-73
2024/02/23 01:12:35;;;;;;;;;1.00;1.00;;;;;7.50;74.29;99021.41;5059187;28;62137;-72
2024/02/23 01:15:01;;;;;;;;;0.75;0.00;;;;;7.49;74.31;99023.16;5056470;28;45508;-72
2024/02/23 01:17:26;;;;;;;;;0.50;0.00;;;;;7.50;74.22;99027.44;5066654;28;74847;-71
2024/02/23 01:19:52;;;;;;;;;2.00;1.00;;;;;7.50;74.33;99024.84;5065995;28;45368;-73
2024/02/23 01:22:17;;;;;;;;;1.50;0.50;;;;;7.54;74.30;99033.38;5060078;28;45628;-72
2024/02/23 01:24:43;;;;;;;;;0.00;0.00;;;;;7.51;74.23;99020.50;5066972;28;45455;-72
2024/02/23 01:27:08;;;;;;;;;5.00;0.00;;;;;7.49;74.26;99019.69;5057386;28;75558;-72
2024/02/23 01:29:34;;;;;;;;;1.00;0.00;;;;;7.48;74.37;99015.41;5060404;28;45413;-72
2024/02/23 01:31:59;;;;;;;;;1.00;1.00;;;;;7.47;74.43;99013.72;5064553;28;45680;-72
2024/02/23 01:34:25;;;;;;;;;4.50;1.00;;;;;7.45;74.33;99005.97;5067147;28;45291;-72
2024/02/23 01:36:50;;;;;;;;;2.00;0.75;;;;;7.39;74.26;98999.25;5071760;27;45300;-72
2024/02/23 01:39:15;;;;;;;;;2.00;0.25;;;;;7.38;74.59;99000.19;5061013;28;65476;-72
2024/02/23 01:41:42;;;;;;;;;1.00;0.00;;;;;7.39;74.67;98995.81;5063746;28;69241;-72
2024/02/23 01:44:07;;;;;;;;;3.00;1.00;;;;;7.38;74.81;98997.59;5059301;28;45343;-72
2024/02/23 01:46:33;;;;;;;;;1.00;0.00;;;;;7.39;74.70;98982.81;5062460;28;45217;-73
2024/02/23 01:48:59;;;;;;;;;1.50;1.00;;;;;7.41;74.86;98988.78;5070933;28;45203;-71
2024/02/23 01:51:25;;;;;;;;;1.25;0.00;;;;;7.42;74.84;98998.31;5069949;28;57537;-72
2024/02/23 01:53:51;;;;;;;;;1.00;1.00;;;;;7.45;74.74;98992.09;5066840;28;45555;-71
2024/02/23 01:56:17;;;;;;;;;3.00;1.00;;;;;7.43;74.82;98989.56;5068352;28;46225;-72
2024/02/23 01:58:43;;;;;;;;;0.00;0.00;;;;;7.42;75.08;98977.50;5065428;28;45866;-72
2024/02/23 02:01:08;;;;;;;;;2.25;1.00;;;;;7.46;75.07;98986.84;5069644;28;45529;-72
2024/02/23 02:03:34;;;;;;;;;1.00;0.00;;;;;7.47;74.68;98974.66;5070057;28;53067;-73
2024/02/23 02:06:00;;;;;;;;;1.00;1.00;;;;;7.49;74.90;98984.13;5062429;28;45986;-72
2024/02/23 02:08:26;;;;;;;;;2.25;0.25;;;;;7.48;74.87;98987.63;5076125;27;46018;-71
2024/02/23 02:10:51;;;;;;;;;2.00;0.50;;;;;7.48;74.92;98982.41;5073975;28;45432;-73
2024/02/23 02:13:17;;;;;;;;;3.00;1.00;;;;;7.45;74.93;98976.50;5080313;28;45499;-71
2024/02/23 02:15:43;;;;;;;;;3.50;0.00;;;;;7.47;74.91;98977.28;5078459;27;74408;-72
2024/02/23 02:18:09;;;;;;;;;3.00;0.00;;;;;7.45;74.95;98976.50;5066196;28;45453;-70
2024/02/23 02:20:36;;;;;;;;;1.50;0.50;;;;;7.46;74.98;98981.63;5077069;28;45526;-72
2024/02/23 02:23:01;;;;;;;;;3.00;0.00;;;;;7.49;74.76;98983.25;5066469;28;45569;-71
2024/02/23 02:25:26;;;;;;;;;1.00;0.00;;;;;7.51;74.68;98971.88;5061628;28;46295;-71
2024/02/23 02:27:52;;;;;;;;;0.75;0.75;;;;;7.48;74.66;98964.19;5065659;28;68113;-71
2024/02/23 02:30:17;;;;;;;;;3.25;0.50;;;;;7.49;74.61;98965.91;5072489;28;45440;-71
2024/02/23 02:32:43;;;;;;;;;3.00;0.50;;;;;7.51;74.80;98969.28;5067022;28;45468;-72
2024/02/23 02:35:11;;;;;;;;;0.00;0.00;;;;;7.51;74.54;98966.69;5065961;28;48353;-71
2024/02/23 02:37:36;;;;;;;;;5.00;0.25;;;;;7.52;74.47;98968.34;5064459;28;45742;-72
2024/02/23 02:40:02;;;;;;;;;0.00;0.00;;;;;7.52;74.80;98960.53;5058946;27;66201;-71
2024/02/23 02:42:28;;;;;;;;;1.75;0.75;;;;;7.53;74.57;98946.63;5064133;28;45590;-71
2024/02/23 02:44:54;;;;;;;;;2.75;1.00;;;;;7.52;74.65;98947.53;5062621;28;46535;-72
2024/02/23 02:47:19;;;;;;;;;0.25;0.25;;;;;7.53;74.65;98935.38;5065383;28;45517;-72
2024/02/23 02:49:44;;;;;;;;;0.00;0.00;;;;;7.55;74.43;98933.56;5078753;27;52229;-70
2024/02/23 02:52:10;;;;;;;;;1.00;0.00;;;;;7.54;74.35;98922.31;5064519;28;73544;-71
2024/02/23 02:54:35;;;;;;;;;0.00;0.00;;;;;7.53;74.36;98920.59;5060281;28;45423;-71
2024/02/23 02:57:00;;;;;;;;;3.00;0.00;;;;;7.50;74.71;98923.31;5063822;28;73299;-71
2024/02/23 02:59:26;;;;;;;;;1.50;0.00;;;;;7.50;74.38;98914.69;5070006;28;45239;-71
2024/02/23 03:01:51;;;;;;;;;4.25;1.00;;;;;7.48;74.57;98914.75;5069118;27;45606;-72
2024/02/23 03:04:16;;;;;;;;;2.00;1.00;;;;;7.46;74.44;98916.56;5065704;28;73107;-71
2024/02/23 03:06:42;;;;;;;;;1.00;1.00;;;;;7.40;74.67;98909.03;5070126;28;50697;-71
2024/02/23 03:09:07;;;;;;;;;0.00;0.00;;;;;7.39;74.59;98910.78;5075630;28;67474;-71
2024/02/23 03:11:33;;;;;;;;;1.50;0.00;;;;;7.34;74.38;98898.88;5060783;28;45310;-71
2024/02/23 03:13:58;;;;;;;;;1.25;0.00;;;;;7.27;74.63;98902.66;5073859;28;47192;-72
2024/02/23 03:16:25;;;;;;;;;0.00;0.00;;;;;7.20;74.80;98899.47;5064582;28;73267;-72
2024/02/23 03:18:51;;;;;;;;;0.50;0.00;;;;;7.13;74.79;98893.69;5073286;27;45701;-72
2024/02/23 03:21:16;;;;;;;;;1.00;0.00;;;;;7.08;75.06;98887.00;5063528;28;45507;-71
2024/02/23 03:23:42;;;;;;;;;2.00;0.00;;;;;7.03;75.10;98880.25;5068512;28;49360;-71
2024/02/23 03:26:08;;;;;;;;;1.50;0.00;;;;;7.00;75.36;98889.94;5065545;28;45442;-73
2024/02/23 03:28:33;;;;;;;;;2.00;0.00;;;;;6.96;75.20;98883.19;5083091;27;45518;-70
2024/02/23 03:31:00;;;;;;;;;2.00;1.00;;;;;6.88;75.37;98873.06;5072149;28;45194;-72
2024/02/23 03:33:25;;;;;;;;;0.00;0.00;;;;;6.86;75.58;98876.66;5068427;28;63591;-72
2024/02/23 03:35:50;;;;;;;;;0.00;0.00;;;;;6.81;76.00;98872.47;5063566;28;50041;-72
2024/02/23 03:38:16;;;;;;;;;0.75;0.00;;;;;6.72;75.65;98856.44;5061176;28;66051;-72
2024/02/23 03:40:42;;;;;;;;;2.00;0.00;;;;;6.72;75.95;98862.47;5071726;28;45581;-72
2024/02/23 03:43:07;;;;;;;;;0.00;0.00;;;;;6.68;76.20;98847.91;5087823;27;46308;-71
2024/02/23 03:45:32;;;;;;;;;2.75;0.00;;;;;6.64;76.27;98849.81;5071040;27;50019;-71
2024/02/23 03:47:58;;;;;;;;;2.25;0.00;;;;;6.63;76.53;98834.25;5062316;28;45440;-71
2024/02/23 03:50:24;;;;;;;;;0.00;0.00;;;;;6.60;76.71;98824.00;5071765;28;45374;-71
2024/02/23 03:52:49;;;;;;;;;0.00;0.00;;;;;6.55;76.98;98825.94;5070651;28;69845;-71
2024/02/23 03:55:15;;;;;;;;;1.00;0.00;;;;;6.55;77.07;98829.41;5060471;28;45187;-71
2024/02/23 03:57:40;;;;;;;;;3.00;0.25;;;;;6.58;77.14;98838.81;5060347;28;63416;-72
2024/02/23 04:00:07;;;;;;;;;2.50;0.00;;;;;6.56;77.15;98830.22;5068345;28;71987;-72
2024/02/23 04:02:32;;;;;;;;;0.50;0.25;;;;;6.56;77.34;98827.63;5064360;28;47035;-72
2024/02/23 04:04:58;;;;;;;;;0.00;0.00;;;;;6.58;77.47;98833.59;5076301;28;72093;-73
2024/02/23 04:07:23;;;;;;;;;2.50;0.00;;;;;6.56;77.60;98823.28;5064932;28;69259;-72
2024/02/23 04:09:54;;;;;;;;;0.00;0.00;;;;;6.58;77.69;98821.44;5074268;28;45478;-71
2024/02/23 04:12:20;;;;;;;;;0.00;0.00;;;;;6.58;77.88;98815.41;5058811;28;45584;-71
2024/02/23 04:14:46;;;;;;;;;2.50;0.00;;;;;6.60;77.65;98821.38;5071539;28;45476;-70
2024/02/23 04:17:14;;;;;;;;;0.75;0.00;;;;;6.58;77.68;98818.00;5076512;28;64927;-71
2024/02/23 04:19:42;;;;;;;;;0.50;0.00;;;;;6.58;77.59;98823.22;5069689;27;45407;-71
2024/02/23 04:22:09;;;;;;;;;0.00;0.00;;;;;6.56;77.80;98809.44;5056051;28;47050;-71
2024/02/23 04:24:36;;;;;;;;;0.00;0.00;;;;;6.56;78.02;98809.44;5071033;28;45298;-72
2024/02/23 04:27:02;;;;;;;;;1.50;0.00;;;;;6.52;77.89;98800.94;5068589;28;46886;-71
2024/02/23 04:29:27;;;;;;;;;0.75;0.00;;;;;6.55;78.05;98807.75;5060871;28;45596;-71
2024/02/23 04:31:52;;;;;;;;;0.25;0.00;;;;;6.54;78.22;98809.50;5078170;28;48368;-71
2024/02/23 04:34:18;;;;;;;;;1.50;0.00;;;;;6.54;77.96;98803.47;5069183;27;71339;-70
2024/02/23 04:36:43;;;;;;;;;0.00;0.00;;;;;6.54;78.04;98803.47;5078993;27;45413;-71
2024/02/23 04:39:08;;;;;;;;;3.50;0.00;;;;;6.52;78.24;98813.91;5065925;27;45257;-71
2024/02/23 04:41:34;;;;;;;;;1.00;0.00;;;;;6.53;78.17;98812.16;5072455;27;75252;-71
2024/02/23 04:43:59;;;;;;;;;0.50;0.00;;;;;6.53;78.16;98809.56;5065186;28;45654;-70
2024/02/23 04:46:25;;;;;;;;;1.25;0.75;;;;;6.53;78.05;98819.94;5074081;27;45353;-71
2024/02/23 04:48:50;;;;;;;;;1.00;0.00;;;;;6.50;78.29;98807.94;5074685;28;45533;-70
2024/02/23 04:51:16;;;;;;;;;1.00;0.00;;;;;6.55;78.30;98816.41;5065545;28;75500;-71
2024/02/23 04:53:41;;;;;;;;;0.00;0.00;;;;;6.56;78.46;98812.03;5068562;28;45375;-71
2024/02/23 04:56:07;;;;;;;;;0.00;0.00;;;;;6.58;78.57;98818.84;5066404;28;45526;-70
2024/02/23 04:58:32;;;;;;;;;0.00;0.00;;;;;6.58;78.34;98821.44;5068105;28;45472;-71
2024/02/23 05:00:57;;;;;;;;;1.50;0.00;;;;;6.59;78.68;98832.72;5075001;27;60248;-70
2024/02/23 05:03:23;;;;;;;;;1.25;1.00;;;;;6.60;78.51;98822.22;5073411;28;72352;-71
2024/02/23 05:05:53;;;;;;;;;2.75;0.00;;;;;6.61;78.50;98815.28;5069847;28;45255;-71
2024/02/23 05:08:18;;;;;;;;;1.00;1.00;;;;;6.62;78.50;98824.75;5075628;28;45283;-72
2024/02/23 05:10:44;;;;;;;;;0.50;0.00;;;;;6.62;78.46;98814.38;5061966;27;47110;-71
2024/02/23 05:13:09;;;;;;;;;1.00;0.00;;;;;6.60;78.43;98816.19;5070109;28;72179;-71
2024/02/23 05:15:35;;;;;;;;;0.75;0.00;;;;;6.60;78.44;98826.59;5074996;28;45443;-71
2024/02/23 05:18:00;;;;;;;;;0.00;0.00;;;;;6.60;78.68;98821.38;5065812;28;45384;-71
2024/02/23 05:20:25;;;;;;;;;0.00;0.00;;;;;6.62;78.64;98829.97;5070311;27;74381;-71
2024/02/23 05:22:51;;;;;;;;;0.00;0.00;;;;;6.62;78.43;98829.97;5076761;27;72571;-71
2024/02/23 05:25:16;;;;;;;;;1.50;0.75;;;;;6.62;78.48;98829.97;5075369;27;53376;-71
2024/02/23 05:27:42;;;;;;;;;2.00;0.00;;;;;6.61;78.19;98836.91;5076581;27;45327;-71
2024/02/23 05:30:08;;;;;;;;;3.00;0.00;;;;;6.60;78.42;98834.38;5069089;27;46242;-71
2024/02/23 05:32:33;;;;;;;;;0.00;0.00;;;;;6.60;78.63;98830.03;5073343;27;45405;-72
2024/02/23 05:34:58;;;;;;;;;0.50;0.00;;;;;6.64;78.53;98844.59;5078446;27;45453;-71
2024/02/23 05:37:24;;;;;;;;;1.00;0.00;;;;;6.67;78.65;98841.00;5070845;28;45477;-71
2024/02/23 05:39:49;;;;;;;;;0.25;0.00;;;;;6.70;78.71;98842.66;5069089;27;71310;-71
2024/02/23 05:42:14;;;;;;;;;0.00;0.00;;;;;6.75;78.68;98838.13;5072129;27;45920;-71
2024/02/23 05:44:43;;;;;;;;;0.50;0.00;;;;;6.76;78.48;98834.59;5068333;27;60142;-71
2024/02/23 05:47:09;;;;;;;;;1.00;1.00;;;;;6.78;78.42;98827.56;5069686;28;45452;-70
2024/02/23 05:49:35;;;;;;;;;2.00;0.00;;;;;6.79;78.30;98837.91;5069995;27;45461;-71
2024/02/23 05:52:00;;;;;;;;;3.00;0.00;;;;;6.80;78.09;98834.41;5080133;27;73354;-71
2024/02/23 05:54:25;;;;;;;;;0.00;0.00;;;;;6.81;78.27;98823.09;5064023;28;69398;-70
2024/02/23 05:56:51;;;;;;;;;0.00;0.00;;;;;6.80;78.21;98815.38;5075481;27;60122;-69
2024/02/23 05:59:16;;;;;;;;;1.00;0.00;;;;;6.79;78.09;98821.47;5068685;28;45383;-66
2024/02/23 06:01:41;;;;;;;;;1.00;0.00;;;;;6.80;78.40;98817.97;5072312;27;72488;-69
2024/02/23 06:04:07;;;;;;;;;1.75;1.00;;;;;6.82;78.20;98822.19;5054666;28;64171;-72
2024/02/23 06:06:32;;;;;;;;;2.75;0.00;;;;;6.84;78.16;98824.72;5073556;27;68663;-70
2024/02/23 06:08:58;;;;;;;;;5.00;0.00;;;;;6.81;78.08;98817.88;5071638;28;75617;-70
2024/02/23 06:11:23;;;;;;;;;2.00;0.00;;;;;6.81;78.03;98817.88;5071003;27;45330;-70
2024/02/23 06:13:48;;;;;;;;;0.00;0.00;;;;;6.80;77.92;98811.00;5074054;27;69008;-69
2024/02/23 06:16:14;;;;;;;;;1.00;0.00;;;;;6.77;77.89;98810.28;5079299;27;72128;-71
2024/02/23 06:18:42;;;;;;;;;0.00;0.00;;;;;6.72;77.96;98800.09;5078335;27;45490;-69
2024/02/23 06:21:14;;;;;;;;;0.00;0.00;;;;;6.69;78.22;98813.19;5068790;27;45214;-68
2024/02/23 06:23:41;;;;;;;;;0.00;0.00;;;;;6.65;78.07;98817.69;5069039;27;45458;-74
2024/02/23 06:26:06;;;;;;;;;3.75;0.00;;;;;6.63;78.15;98808.28;5068787;27;45689;-71
2024/02/23 06:28:32;;;;;;;;;0.00;0.00;;;;;6.60;78.20;98811.84;5076178;27;45855;-73
2024/02/23 06:30:58;;;;;;;;;0.00;0.00;;;;;6.58;78.32;98805.03;5067333;27;47225;-73
2024/02/23 06:33:23;;;;;;;;;0.00;0.00;;;;;6.56;78.26;98799.03;5062404;27;65198;-70
2024/02/23 06:35:49;;;;;;;;;1.00;0.00;;;;;6.56;78.33;98794.69;5069317;27;54565;-77
2024/02/23 06:38:14;;;;;;;;;2.25;0.00;;;;;6.54;78.56;98793.91;5072289;27;46889;-74
2024/02/23 06:40:40;;;;;;;;;0.00;0.00;;;;;6.56;78.41;98806.84;5078853;27;45549;-74
2024/02/23 06:43:05;;;;;;;;;0.00;0.00;;;;;6.52;78.48;98803.53;5095161;27;49402;-73
2024/02/23 06:45:30;;;;;;;;;2.25;0.00;;;;;6.53;78.60;98801.75;5085131;27;72824;-74
2024/02/23 06:47:56;;;;;;;;;0.75;0.00;;;;;6.57;78.61;98813.72;5064144;28;69717;-74
2024/02/23 06:50:21;;;;;;;;;0.50;0.50;;;;;6.60;78.58;98805.78;5069720;28;73293;-73
2024/02/23 06:52:48;;;;;;;;;0.00;0.00;;;;;6.64;78.71;98809.97;5077834;28;45350;-73
2024/02/23 06:55:13;;;;;;;;;1.00;0.00;;;;;6.63;78.48;98809.09;5061494;28;45335;-74
2024/02/23 06:57:39;;;;;;;;;1.25;0.00;;;;;6.65;78.38;98802.09;5064863;28;45535;-74
2024/02/23 07:00:05;;;;;;;;;4.00;0.00;;;;;6.65;78.37;98806.44;5066148;28;45264;-74
2024/02/23 07:02:34;;;;;;;;;4.00;0.00;;;;;6.68;78.42;98810.69;5081597;27;45327;-65
2024/02/23 07:04:59;;;;;;;;;0.25;0.00;;;;;6.67;78.51;98807.22;5079656;28;45534;-73
2024/02/23 07:07:24;;;;;;;;;3.00;0.00;;;;;6.64;78.49;98807.38;5050155;28;54437;-80
2024/02/23 07:09:51;;;;;;;;;0.00;0.00;;;;;6.67;78.56;98793.41;5092935;27;54752;-66
2024/02/23 07:12:17;;;;;;;;;1.00;0.00;;;;;6.68;78.54;98811.53;5066994;28;45355;-73
2024/02/23 07:14:42;;;;;;;;;5.00;0.00;;;;;6.74;78.51;98802.63;5067978;28;54013;-78
2024/02/23 07:17:08;;;;;;;;;2.00;1.00;;;;;6.82;78.65;98808.34;5072360;28;74159;-77
2024/02/23 07:19:33;;;;;;;;;0.00;0.00;;;;;6.92;78.48;98814.81;5084553;28;45306;-81
2024/02/23 07:21:58;;;;;;;;;1.00;0.00;;;;;6.98;78.29;98811.13;5086806;28;44838;-75
2024/02/23 07:24:24;;;;;;;;;2.00;0.00;;;;;7.01;78.20;98817.06;5073734;27;67711;-76
2024/02/23 07:26:49;;;;;;;;;0.00;0.00;;;;;7.04;78.36;98808.25;5064501;28;45280;-79
2024/02/23 07:29:14;;;;;;;;;0.00;0.00;;;;;7.06;78.17;98801.22;5064963;27;45399;-82
2024/02/23 07:31:40;;;;;;;;;3.50;0.00;;;;;7.11;77.96;98806.25;5049655;27;70463;-81
2024/02/23 07:34:05;;;;;;;;;0.00;0.00;;;;;7.20;77.91;98811.03;5069098;28;73288;-76
2024/02/23 07:36:31;;;;;;;;;0.00;0.00;;;;;7.28;77.67;98808.94;5057771;27;48217;-65
2024/02/23 07:38:57;;;;;;;;;0.00;0.00;;;;;7.33;77.44;98806.97;5074587;27;45259;-65
2024/02/23 07:41:23;;;;;;;;;2.00;0.00;;;;;7.30;77.15;98814.91;5077682;27;45308;-64
2024/02/23 07:43:49;;;;;;;;;6.50;0.25;;;;;7.31;77.43;98816.63;5065548;27;45421;-71
2024/02/23 07:46:14;;;;;;;;;0.75;0.00;;;;;7.31;77.21;98814.03;5068357;27;46485;-69
2024/02/23 07:48:39;;;;;;;;;2.00;1.00;;;;;7.30;77.01;98814.09;5060528;27;45731;-68
2024/02/23 07:51:05;;;;;;;;;3.00;0.00;;;;;7.30;77.18;98816.69;5064575;28;45534;-68
2024/02/23 07:53:31;;;;;;;;;2.00;2.00;;;;;7.30;77.32;98809.72;5087622;27;45486;-68
2024/02/23 07:55:59;;;;;;;;;0.75;0.75;;;;;7.32;77.23;98826.09;5078526;27;45310;-68
2024/02/23 07:58:26;;;;;;;;;0.25;0.00;;;;;7.38;77.29;98828.44;5070544;28;45677;-68
2024/02/23 08:00:51;;;;;;;;;4.00;0.75;;;;;7.45;77.08;98835.97;5065821;28;45376;-67
2024/02/23 08:03:17;;;;;;;;;1.50;0.00;;;;;7.49;76.85;98838.38;5067582;28;45499;-68
2024/02/23 08:05:42;;;;;;;;;1.00;0.00;;;;;7.51;76.79;98836.53;5074495;27;75789;-69
2024/02/23 08:08:07;;;;;;;;;0.00;0.00;;;;;7.56;76.88;98838.91;5069825;27;71168;-70
2024/02/23 08:10:33;;;;;;;;;0.50;0.00;;;;;7.62;76.56;98856.03;5071958;27;53237;-69
2024/02/23 08:12:59;;;;;;;;;3.50;0.75;;;;;7.60;76.27;98832.69;5052465;27;45633;-68
2024/02/23 08:15:24;;;;;;;;;2.50;0.25;;;;;7.54;76.20;98828.59;5063251;27;75311;-68
2024/02/23 08:17:49;;;;;;;;;1.00;1.00;;;;;7.53;76.41;98832.09;5074629;27;69099;-69
2024/02/23 08:20:15;;;;;;;;;0.75;0.75;;;;;7.62;76.42;98825.63;5067321;27;62633;-69
2024/02/23 08:22:40;;;;;;;;;0.25;0.00;;;;;7.63;76.19;98824.69;5072470;27;45480;-69
2024/02/23 08:25:06;;;;;;;;;0.00;0.00;;;;;7.65;76.32;98825.50;5058012;28;69410;-69
2024/02/23 08:27:31;;;;;;;;;2.00;1.00;;;;;7.68;76.16;98829.72;5071105;28;45386;-70
2024/02/23 08:29:56;;;;;;;;;1.00;1.00;;;;;7.67;75.82;98823.66;5080754;27;59950;-69
2024/02/23 08:32:22;;;;;;;;;0.75;0.00;;;;;7.63;75.81;98821.25;5073446;28;48404;-70
2024/02/23 08:34:47;;;;;;;;;0.50;0.50;;;;;7.66;75.73;98837.59;5058262;28;47020;-70
2024/02/23 08:37:12;;;;;;;;;0.00;0.00;;;;;7.64;75.82;98833.38;5071186;27;71466;-69
2024/02/23 08:39:38;;;;;;;;;6.00;0.25;;;;;7.66;75.79;98834.97;5049246;28;45459;-72
2024/02/23 08:42:03;;;;;;;;;2.00;0.00;;;;;7.74;75.92;98843.31;5069386;27;73265;-65
2024/02/23 08:44:29;;;;;;;;;1.00;1.00;;;;;7.82;75.69;98842.09;5065148;28;45733;-66
2024/02/23 08:46:54;;;;;;;;;2.50;0.00;;;;;7.88;75.47;98849.63;5069025;28;69887;-66
2024/02/23 08:49:19;;;;;;;;;5.00;0.25;;;;;7.92;75.04;98843.38;5075773;28;65226;-66
2024/02/23 08:51:45;;;;;;;;;1.25;0.00;;;;;7.99;75.01;98844.78;5064980;28;45467;-67
2024/02/23 08:54:10;;;;;;;;;2.25;0.75;;;;;8.07;74.76;98841.78;5080933;27;66890;-67
2024/02/23 08:56:39;;;;;;;;;1.25;0.00;;;;;8.20;74.98;98849.88;5073512;27;45479;-66
2024/02/23 08:59:04;;;;;;;;;2.00;0.75;;;;;8.33;74.77;98845.78;5072929;27;45343;-69
2024/02/23 09:01:30;;;;;;;;;2.50;0.75;;;;;8.41;74.13;98848.00;5068646;28;73247;-68
2024/02/23 09:03:55;;;;;;;;;3.00;0.75;;;;;8.46;74.18;98846.03;5071632;27;47228;-68
2024/02/23 09:06:20;;;;;;;;;4.25;1.00;;;;;8.46;73.88;98849.47;5077099;27;66829;-69
2024/02/23 09:08:46;;;;;;;;;1.50;0.25;;;;;8.42;73.41;98842.75;5067613;27;45296;-68
2024/02/23 09:11:13;;;;;;;;;1.00;1.00;;;;;8.35;73.66;98839.56;5053652;28;72954;-68
2024/02/23 09:13:38;;;;;;;;;0.75;0.75;;;;;8.39;73.82;98847.22;5065077;28;45353;-68
2024/02/23 09:16:04;;;;;;;;;1.00;0.00;;;;;8.41;73.59;98842.78;5074754;28;45491;-69
2024/02/23 09:18:30;;;;;;;;;1.75;0.00;;;;;8.39;73.59;98845.47;5065063;27;45567;-69
2024/02/23 09:20:55;;;;;;;;;2.00;0.00;;;;;8.41;73.52;98846.25;5082607;27;45522;-69
2024/02/23 09:23:20;;;;;;;;;0.00;0.00;;;;;8.42;73.47;98852.31;5070567;27;65067;-70
2024/02/23 09:25:46;;;;;;;;;1.00;0.00;;;;;8.42;73.55;98853.16;5070285;27;68705;-70
2024/02/23 09:28:11;;;;;;;;;1.50;1.00;;;;;8.41;73.56;98843.66;5067539;27;45463;-69
2024/02/23 09:30:37;;;;;;;;;3.00;1.00;;;;;8.42;73.21;98849.69;5070989;28;68641;-73
2024/02/23 09:33:03;;;;;;;;;2.00;0.50;;;;;8.44;73.54;98853.09;5071105;28;46069;-73
2024/02/23 09:35:28;;;;;;;;;3.25;1.00;;;;;8.53;74.76;98844.81;5074019;28;45238;-68
2024/02/23 09:37:53;;;;;;;;;4.00;1.00;;;;;8.66;74.70;98842.47;5067023;28;63590;-68
2024/02/23 09:40:20;;;;;;;;;4.50;1.00;;;;;8.78;74.21;98854.03;5064173;28;45531;-68
2024/02/23 09:42:55;;;;;;;;;1.00;1.00;;;;;8.92;73.59;98857.66;5073329;27;46326;-69
2024/02/23 09:45:21;;;;;;;;;1.75;0.75;;;;;9.04;73.08;98850.97;5062336;28;45808;-69
2024/02/23 09:47:47;;;;;;;;;2.00;1.00;;;;;9.17;72.99;98860.78;5067712;28;65568;-70
2024/02/23 09:50:13;;;;;;;;;1.00;1.00;;;;;9.29;72.86;98852.31;5062445;28;45394;-69
2024/02/23 09:52:38;;;;;;;;;1.00;1.00;;;;;9.43;72.01;98860.25;5078954;28;46886;-70
2024/02/23 09:55:04;;;;;;;;;1.75;0.75;;;;;9.49;71.68;98852.13;5071490;28;73488;-70
2024/02/23 09:57:30;;;;;;;;;2.00;0.50;;;;;9.53;71.33;98851.97;5077661;28;45796;-72
2024/02/23 09:59:55;;;;;;;;;1.00;0.00;;;;;9.57;71.29;98862.16;5073440;28;45562;-72
2024/02/23 10:02:21;;;;;;;;;0.00;0.00;;;;;9.61;71.06;98858.44;5063462;28;45379;-71
2024/02/23 10:04:48;;;;;;;;;1.50;0.00;;;;;9.64;71.25;98862.66;5067406;27;45306;-69
2024/02/23 10:07:16;;;;;;;;;3.00;0.75;;;;;9.69;71.20;98863.28;5069930;28;45721;-68
2024/02/23 10:09:41;;;;;;;;;0.75;0.75;;;;;9.72;71.00;98860.50;5066552;28;45592;-68
2024/02/23 10:12:07;;;;;;;;;0.75;0.75;;;;;9.73;70.71;98874.41;5069212;28;67343;-69
2024/02/23 10:14:32;;;;;;;;;4.75;2.25;;;;;9.68;70.45;98879.84;5073968;28;45383;-68
2024/02/23 10:16:58;;;;;;;;;5.50;0.00;;;;;9.65;70.39;98880.00;5065887;28;45359;-66
2024/02/23 10:19:28;;;;;;;;;3.00;0.50;;;;;9.59;70.04;98877.75;5081051;28;45864;-67
2024/02/23 10:21:54;;;;;;;;;4.00;1.00;;;;;9.57;70.40;98877.81;5069578;28;46689;-69
2024/02/23 10:24:19;;;;;;;;;4.25;1.00;;;;;9.62;70.34;98869.75;5070954;27;45326;-75
2024/02/23 10:26:45;;;;;;;;;2.75;1.25;;;;;9.74;70.54;98878.69;5073694;28;63026;-70
2024/02/23 10:29:10;;;;;;;;;4.00;1.00;;;;;9.81;70.02;98866.97;5071265;28;71981;-70
2024/02/23 10:31:37;;;;;;;;;2.25;1.00;;;;;9.89;69.86;98873.47;5069887;28;48070;-69
2024/02/23 10:34:09;;;;;;;;;2.00;2.00;;;;;9.96;69.71;98868.78;5062008;28;45995;-69
2024/02/23 10:36:36;;;;;;;;;2.00;2.00;;;;;10.03;69.91;98861.44;5063614;28;45325;-70
2024/02/23 10:39:04;;;;;;;;;0.00;0.00;;;;;10.11;69.54;98863.63;5064682;28;45600;-71
2024/02/23 10:41:34;;;;;;;;;3.00;2.50;;;;;10.17;69.23;98861.53;5064964;28;46281;-71
2024/02/23 10:44:00;;;;;;;;;3.00;2.25;;;;;10.20;69.07;98860.53;5061802;28;45173;-70
2024/02/23 10:46:25;;;;;;;;;3.00;2.25;;;;;10.21;68.86;98857.81;5082208;28;45391;-69
2024/02/23 10:48:50;;;;;;;;;2.00;1.25;;;;;10.17;69.18;98853.69;5053660;28;61306;-67
2024/02/23 10:51:16;;;;;;;;;2.25;1.00;;;;;10.11;69.12;98858.41;5076695;28;46946;-68
2024/02/23 10:53:43;;;;;;;;;1.50;1.00;;;;;10.02;72.50;98862.34;5074360;28;53812;-66
2024/02/23 10:56:10;;;;;;;;;2.25;1.00;;;;;9.93;70.29;98858.47;5052601;28;61327;-66
2024/02/23 10:58:35;;;;;;;;;3.00;0.75;;;;;9.78;70.80;98848.88;5063111;27;50546;-66
2024/02/23 11:01:04;;;;;;;;;0.00;0.00;;;;;9.63;70.76;98860.97;5060415;28;56286;-66
2024/02/23 11:03:30;;;;;;;;;3.25;1.00;;;;;9.54;71.31;98849.25;5078413;28;45260;-67
2024/02/23 11:05:55;;;;;;;;;0.00;0.00;;;;;9.54;71.99;98837.97;5078964;28;45370;-66
2024/02/23 11:08:21;;;;;;;;;1.00;1.00;;;;;9.65;72.29;98833.88;5064374;27;72219;-74
2024/02/23 11:10:53;;;;;;;;;2.50;0.50;;;;;9.73;71.95;98830.84;5064338;28;45419;-66
2024/02/23 11:13:18;;;;;;;;;2.00;1.00;;;;;9.81;72.34;98841.72;5065816;28;45492;-65
2024/02/23 11:15:44;;;;;;;;;1.50;1.50;;;;;9.89;72.62;98841.28;5073087;28;45395;-67
2024/02/23 11:18:28;;;;;;;;;1.00;1.00;;;;;10.01;72.21;98845.84;5060833;28;45487;-66
2024/02/23 11:20:55;;;;;;;;;1.50;1.00;;;;;10.14;71.52;98842.56;5077753;28;45302;-65
2024/02/23 11:23:21;;;;;;;;;6.50;2.75;;;;;10.23;71.98;98848.13;5070624;28;45823;-65
2024/02/23 11:26:05;;;;;;;;;3.50;2.00;;;;;10.35;71.82;98845.78;5068319;28;54349;-65
2024/02/23 11:28:31;;;;;;;;;3.75;3.00;;;;;10.42;71.69;98842.72;5073864;28;47175;-67
2024/02/23 11:30:57;;;;;;;;;3.75;2.00;;;;;10.53;71.71;98842.09;5068722;28;46161;-66
2024/02/23 11:33:26;;;;;;;;;3.00;2.50;;;;;10.75;71.13;98846.94;5077718;27;45386;-65
2024/02/23 11:35:52;;;;;;;;;5.50;2.00;;;;;10.97;70.96;98849.13;5067727;28;45488;-65